Downs, KS

9:08 AM CDT on September 17, 2014 (GMT -0500)
Cawker City | Change Station
CLOSE
Current Station
Personal Weather Station
Location: Cawker City, KS
Elevation: 1490 ft
Nearby Weather Stations

Elev 1490 ft 39.51 °N, 98.44 °W | Updated 4 seconds ago

Partly Cloudy
Partly Cloudy
60.4 °F
Feels Like 60.4 °F
N
0.0
Wind Variable Wind from NNW
Gusts 0.0 mph

Today
High -- | Low -- °F
--% Chance of Precip.
Yesterday
High -- | Low -- °F
Precip. -- in
7:17 AM 7:39 PM
Waning Crescent, 36% visible
Pressure 29.87 in
Visibility 9.0 miles
Clouds Clear
Dew Point 60 °F
Humidity 98%
Rainfall 0.00 in
Snow Depth Not available.
UV 1 out of 12
Pollen 5.80 out of 12
Air Quality Not available.
Flu Activity Not available.
METAR KRSL 171353Z AUTO 25005KT 9SM CLR 18/17 A2990 RMK AO2 SLP114 T01830167

More Conditions Fewer Conditions

Pressure 29.87 in
Visibility 9.0 miles
Clouds Clear
Dew Point 60 °F
Humidity 98%
Rainfall 0.00 in
Snow Depth Not available.
UV 1 out of 12
Pollen 5.80 out of 12
Air Quality Not available.
Flu Activity Not available.
METAR KRSL 171353Z AUTO 25005KT 9SM CLR 18/17 A2990 RMK AO2 SLP114 T01830167

More Conditions Fewer Conditions

10-Day Weather Forecast

Almanac

Astronomy

Sep. 17, 2014 Rise Set
Actual Time 7:17 AM CDT 7:39 PM CDT
Civil Twilight 6:50 AM CDT 8:06 PM CDT
Nautical Twilight 6:18 AM CDT 8:37 PM CDT
Astronomical Twilight 5:46 AM CDT 9:10 PM CDT
Moon 1:19 AM CDT 3:49 PM CDT
Length of Visible Light 13h 15m
Length of Day
12h 22m
Tomorrow will be 2m 33s shorter.
Waning Crescent, 36% of the Moon is Illuminated
Today
Waning Crescent
Sep 24
New
Oct 1
First Quarter
Oct 8
Full
Oct 15
Last Quarter

Today's Extremes

State Highs State Lows

Community

WunderPhotos

Upload Photos

1,754,040 photos uploaded!

WunderBlogs® & News

Nearby

Snow Depth

Station Depth Elevation
No new snow has been reported.

Earthquake Activity

City Distance Mag. Time & Date
No recent earthquake activity has been reported nearby.
Minimum magnitude displayed is 2.5.

Coastal Water Temperatures

Place Temperature
No Stations Reporting

Nearby Weather Stations